createdAt,value
2022-08-17T00:02:25.875Z,100892.56
2022-08-17T00:04:50.730Z,100887.00
2022-08-17T00:07:12.777Z,100891.41
2022-08-17T00:09:34.596Z,100882.59
2022-08-17T00:12:41.651Z,100880.59
2022-08-17T00:14:38.627Z,100879.78
2022-08-17T00:17:00.849Z,100877.78
2022-08-17T00:19:25.669Z,100876.63
2022-08-17T00:22:29.520Z,100884.22
2022-08-17T00:24:30.964Z,100877.41
2022-08-17T00:26:52.854Z,100869.78
2022-08-17T00:29:19.674Z,100868.94
2022-08-17T00:31:42.007Z,100866.50
2022-08-17T00:34:06.329Z,100860.09
2022-08-17T00:36:28.609Z,100866.91
2022-08-17T00:38:51.411Z,100860.94
2022-08-17T00:41:18.852Z,100858.16
2022-08-17T00:44:03.751Z,100863.38
2022-08-17T00:46:39.333Z,100862.19
2022-08-17T00:49:01.158Z,100859.44
2022-08-17T00:51:46.776Z,100851.81
2022-08-17T00:54:29.786Z,100855.47
2022-08-17T00:57:11.153Z,100858.28
2022-08-17T00:59:39.779Z,100851.03
2022-08-17T01:02:03.921Z,100846.22
2022-08-17T01:04:29.086Z,100845.84
2022-08-17T01:06:52.502Z,100856.66
2022-08-17T01:09:16.960Z,100847.44
2022-08-17T01:11:40.598Z,100850.25
2022-08-17T01:14:03.132Z,100850.25
2022-08-17T01:16:31.903Z,100845.84
2022-08-17T01:19:00.277Z,100839.84
2022-08-17T01:21:47.750Z,100841.44
2022-08-17T01:24:10.008Z,100839.09
2022-08-17T01:26:34.504Z,100837.91
2022-08-17T01:28:56.589Z,100843.56
2022-08-17T01:31:18.568Z,100837.19
2022-08-17T01:33:40.919Z,100834.78
2022-08-17T01:36:07.034Z,100827.19
2022-08-17T01:38:31.956Z,100828.03
2022-08-17T01:41:01.689Z,100820.44
2022-08-17T01:43:31.146Z,100819.66
2022-08-17T01:46:03.264Z,100816.88
2022-08-17T01:48:33.516Z,100809.28
2022-08-17T01:50:55.370Z,100816.91
2022-08-17T01:53:34.985Z,100808.09
2022-08-17T01:56:05.662Z,100802.53
2022-08-17T01:58:27.725Z,100804.94
2022-08-17T02:01:00.954Z,100806.56
2022-08-17T02:03:25.300Z,100813.81
2022-08-17T02:05:53.588Z,100809.81
2022-08-17T02:08:20.144Z,100815.44
2022-08-17T02:10:46.938Z,100820.25
2022-08-17T02:13:09.308Z,100822.66
2022-08-17T02:15:32.178Z,100811.84
2022-08-17T02:17:54.832Z,100817.91
2022-08-17T02:20:17.312Z,100814.69
2022-08-17T02:23:03.197Z,100812.28
2022-08-17T02:25:33.710Z,100810.72
2022-08-17T02:27:55.632Z,100811.94
2022-08-17T02:31:02.201Z,100807.13
2022-08-17T02:32:59.794Z,100807.91
2022-08-17T02:35:26.230Z,100811.56
2022-08-17T02:37:55.375Z,100804.38
2022-08-17T02:40:19.128Z,100809.59
2022-08-17T02:42:58.463Z,100804.81
2022-08-17T02:45:25.297Z,100804.03
2022-08-17T02:47:47.622Z,100801.63
2022-08-17T02:50:12.718Z,100797.63
2022-08-17T02:52:42.945Z,100799.63
2022-08-17T02:55:27.930Z,100798.06
2022-08-17T02:57:51.616Z,100794.06
2022-08-17T03:00:29.040Z,100785.28
2022-08-17T03:02:52.140Z,100792.50
2022-08-17T03:05:18.321Z,100782.91
2022-08-17T03:07:40.387Z,100784.13
2022-08-17T03:10:02.388Z,100777.72
2022-08-17T03:12:24.462Z,100780.94
2022-08-17T03:14:46.258Z,100778.13
2022-08-17T03:17:10.098Z,100789.34
2022-08-17T03:19:33.143Z,100790.97
2022-08-17T03:21:55.618Z,100790.59
2022-08-17T03:24:18.107Z,100792.63
2022-08-17T03:26:39.934Z,100792.19
2022-08-17T03:29:01.823Z,100788.59
2022-08-17T03:31:23.772Z,100795.41
2022-08-17T03:33:45.714Z,100789.78
2022-08-17T03:36:08.278Z,100789.38
2022-08-17T03:38:30.305Z,100789.78
2022-08-17T03:41:01.854Z,100789.00
2022-08-17T03:43:23.873Z,100795.00
2022-08-17T03:46:04.105Z,100800.63
2022-08-17T03:48:47.466Z,100795.78
2022-08-17T03:51:38.205Z,100793.38
2022-08-17T03:54:18.621Z,100797.75
2022-08-17T03:56:44.117Z,100795.38
2022-08-17T03:59:05.964Z,100792.19
2022-08-17T04:01:28.101Z,100798.19
2022-08-17T04:03:49.946Z,100794.19
2022-08-17T04:06:11.873Z,100800.19
2022-08-17T04:08:34.191Z,100798.97
2022-08-17T04:10:57.445Z,100811.78
2022-08-17T04:13:24.723Z,100807.00
2022-08-17T04:15:49.235Z,100805.38
2022-08-17T04:18:11.201Z,100806.19
2022-08-17T04:20:33.764Z,100815.84
2022-08-17T04:23:18.500Z,100808.63
2022-08-17T04:25:50.125Z,100808.22
2022-08-17T04:28:16.238Z,100810.63
2022-08-17T04:30:39.623Z,100805.41
2022-08-17T04:33:10.698Z,100811.41
2022-08-17T04:35:36.666Z,100810.66
2022-08-17T04:37:59.131Z,100813.06
2022-08-17T04:40:40.946Z,100809.06
2022-08-17T04:43:10.981Z,100804.25
2022-08-17T04:45:33.899Z,100800.28
2022-08-17T04:47:55.725Z,100800.28
2022-08-17T04:50:17.908Z,100807.88
2022-08-17T04:52:46.687Z,100798.25
2022-08-17T04:55:09.781Z,100799.06
2022-08-17T04:57:31.648Z,100802.66
2022-08-17T05:00:01.784Z,100813.84
2022-08-17T05:02:25.025Z,100813.03
2022-08-17T05:04:46.918Z,100824.66
2022-08-17T05:07:08.799Z,100836.66
2022-08-17T05:09:31.053Z,100836.25
2022-08-17T05:11:52.942Z,100852.28
2022-08-17T05:14:17.329Z,100860.69
2022-08-17T05:16:39.251Z,100867.88
2022-08-17T05:19:02.608Z,100877.88
2022-08-17T05:21:25.450Z,100884.66
2022-08-17T05:23:50.338Z,100869.44
2022-08-17T05:26:25.954Z,100861.00
2022-08-17T05:28:49.243Z,100878.22
2022-08-17T05:31:12.942Z,100879.41
2022-08-17T05:33:44.329Z,100874.22
2022-08-17T05:36:11.854Z,100883.81
2022-08-17T05:38:53.739Z,100867.38
2022-08-17T05:41:15.669Z,100875.00
2022-08-17T05:43:42.998Z,100878.59
2022-08-17T05:46:43.591Z,100893.44
2022-08-17T05:49:08.568Z,100881.44
2022-08-17T05:52:02.457Z,100865.44
2022-08-17T05:54:40.226Z,100861.44
2022-08-17T05:57:28.387Z,100869.47
2022-08-17T06:00:30.597Z,100871.91
2022-08-17T06:03:34.304Z,100869.47
2022-08-17T06:06:31.598Z,100863.06
2022-08-17T06:09:32.948Z,100844.63
2022-08-17T06:12:38.633Z,100860.69
2022-08-17T06:15:10.870Z,100859.88
2022-08-17T06:17:34.569Z,100858.66
2022-08-17T06:20:01.363Z,100856.25
2022-08-17T06:22:33.145Z,100848.25
2022-08-17T06:25:02.715Z,100858.25
2022-08-17T06:27:35.928Z,100863.03
2022-08-17T06:30:20.936Z,100863.78
2022-08-17T06:32:47.453Z,100877.00
2022-08-17T06:35:14.430Z,100873.78
2022-08-17T06:38:37.887Z,100869.72
2022-08-17T06:41:21.224Z,100866.03
2022-08-17T06:43:56.751Z,100856.72
2022-08-17T06:46:29.015Z,100854.66
2022-08-17T06:49:33.248Z,100857.03
2022-08-17T06:52:12.299Z,100853.41
2022-08-17T06:55:19.514Z,100858.16
2022-08-17T06:58:05.903Z,100857.28
2022-08-17T07:00:47.158Z,100869.66
2022-08-17T07:03:09.889Z,100876.81
2022-08-17T07:05:50.467Z,100879.13
2022-08-17T07:08:51.624Z,100877.09
2022-08-17T07:11:23.606Z,100880.66
2022-08-17T07:14:16.653Z,100883.81
2022-08-17T07:16:56.233Z,100897.41
2022-08-17T07:19:25.271Z,100906.63
2022-08-17T07:22:15.891Z,100902.22
2022-08-17T07:24:51.593Z,100907.06
2022-08-17T07:27:22.732Z,100913.41
2022-08-17T07:30:10.379Z,100923.41
2022-08-17T07:32:51.090Z,100926.22
2022-08-17T07:35:37.673Z,100927.84
2022-08-17T07:38:28.398Z,100917.47
2022-08-17T07:41:05.300Z,100914.72
2022-08-17T07:43:40.977Z,100910.72
2022-08-17T07:46:41.634Z,100911.56
2022-08-17T07:49:03.638Z,100901.91
2022-08-17T07:51:55.479Z,100916.34
2022-08-17T07:54:32.725Z,100917.94
2022-08-17T07:57:25.402Z,100924.72
2022-08-17T08:00:01.455Z,100930.72
2022-08-17T08:02:31.127Z,100931.97
2022-08-17T08:05:13.203Z,100935.97
2022-08-17T08:07:50.531Z,100944.03
2022-08-17T08:10:27.913Z,100949.25
2022-08-17T08:13:24.459Z,100955.25
2022-08-17T08:15:54.097Z,100986.97
2022-08-17T08:18:38.759Z,101006.56
2022-08-17T08:21:21.960Z,101033.50
2022-08-17T08:24:07.155Z,101030.34
2022-08-17T08:26:47.593Z,100983.91
2022-08-17T08:29:34.093Z,100938.69
2022-08-17T08:32:11.778Z,100876.28
2022-08-17T08:35:13.988Z,100839.94
2022-08-17T08:37:43.677Z,100847.66
2022-08-17T08:40:56.357Z,100870.97
2022-08-17T08:43:36.320Z,100897.41
2022-08-17T08:46:24.557Z,100907.81
2022-08-17T08:49:11.844Z,100922.22
2022-08-17T08:51:55.736Z,100916.53
2022-08-17T08:54:38.630Z,100925.72
2022-08-17T09:00:24.811Z,100922.31
2022-08-17T09:02:58.862Z,100922.47
2022-08-17T09:05:56.028Z,100919.81
2022-08-17T09:08:45.881Z,100909.97
2022-08-17T09:11:23.734Z,100912.94
2022-08-17T09:14:28.416Z,100911.06
2022-08-17T09:17:12.902Z,100924.38
2022-08-17T09:19:48.078Z,100934.84
2022-08-17T09:22:32.564Z,100934.19
2022-08-17T09:25:03.310Z,100934.63
2022-08-17T09:28:00.777Z,100941.09
2022-08-17T09:30:25.152Z,100955.16
2022-08-17T09:32:56.288Z,100959.53
2022-08-17T09:35:36.539Z,100959.13
2022-08-17T09:38:19.699Z,100962.44
2022-08-17T09:40:57.205Z,100960.03
2022-08-17T09:43:46.660Z,100960.88
2022-08-17T09:46:18.169Z,100961.72
2022-08-17T09:48:57.560Z,100975.44
2022-08-17T09:51:55.160Z,100974.63
2022-08-17T09:54:40.680Z,100984.38
2022-08-17T09:57:29.283Z,100990.44
2022-08-17T10:00:16.969Z,101002.53
2022-08-17T10:03:16.481Z,101019.06
2022-08-17T10:06:00.514Z,101019.81
2022-08-17T10:08:55.203Z,101020.97
2022-08-17T10:11:53.951Z,101020.97
2022-08-17T10:14:37.231Z,101031.38
2022-08-17T10:17:33.047Z,101030.56
2022-08-17T10:20:15.360Z,101020.91
2022-08-17T10:23:01.978Z,101019.72
2022-08-17T10:25:59.514Z,101031.00
2022-08-17T10:28:38.981Z,101024.69
2022-08-17T10:34:41.788Z,101025.28
2022-08-17T10:37:40.645Z,101018.09
2022-08-17T10:40:36.335Z,101024.25
2022-08-17T10:43:04.583Z,101029.16
2022-08-17T10:45:33.961Z,101029.66
2022-08-17T10:48:07.397Z,101022.06
2022-08-17T10:51:00.262Z,101025.34
2022-08-17T10:53:49.431Z,101019.38
2022-08-17T10:56:14.293Z,101014.22
2022-08-17T10:58:59.687Z,101019.91
2022-08-17T11:02:03.936Z,101003.09
2022-08-17T11:05:08.909Z,101004.75
2022-08-17T11:07:55.067Z,100993.56
2022-08-17T11:11:12.415Z,101010.47
2022-08-17T11:13:55.988Z,101007.69
2022-08-17T11:16:47.932Z,101007.75
2022-08-17T11:19:28.798Z,101007.38
2022-08-17T11:23:04.859Z,101005.81
2022-08-17T11:25:47.077Z,101005.88
2022-08-17T11:28:23.570Z,101002.28
2022-08-17T11:30:53.515Z,101009.09
2022-08-17T11:33:38.097Z,101011.50
2022-08-17T11:36:34.254Z,101009.09
2022-08-17T11:39:14.851Z,101016.69
2022-08-17T11:41:51.073Z,101023.91
2022-08-17T11:44:52.538Z,101014.63
2022-08-17T11:48:16.144Z,101022.25
2022-08-17T11:51:17.609Z,101022.59
2022-08-17T11:53:39.416Z,101019.78
2022-08-17T11:56:08.203Z,101030.19
2022-08-17T11:58:29.925Z,101033.00
2022-08-17T12:01:00.775Z,101037.44
2022-08-17T12:03:31.871Z,101040.25
2022-08-17T12:06:11.122Z,101046.66
2022-08-17T12:08:45.357Z,101051.91
2022-08-17T12:11:16.574Z,101061.13
2022-08-17T12:14:00.639Z,101061.09
2022-08-17T12:16:22.661Z,101067.44
2022-08-17T12:18:59.285Z,101068.59
2022-08-17T12:21:28.066Z,101068.97
2022-08-17T12:24:06.441Z,101073.72
2022-08-17T12:26:33.587Z,101072.09
2022-08-17T12:29:01.828Z,101078.09
2022-08-17T12:31:34.384Z,101080.84
2022-08-17T12:33:56.972Z,101082.47
2022-08-17T12:36:28.414Z,101074.06
2022-08-17T12:39:13.999Z,101075.75
2022-08-17T12:41:47.298Z,101064.56
2022-08-17T12:44:50.303Z,101065.00
2022-08-17T12:47:22.680Z,101065.41
2022-08-17T12:49:52.380Z,101065.81
2022-08-17T12:52:25.022Z,101057.09
2022-08-17T12:54:52.538Z,101055.53
2022-08-17T12:57:24.433Z,101053.19
2022-08-17T12:59:58.905Z,101048.84
2022-08-17T13:02:30.180Z,101051.69
2022-08-17T13:04:52.138Z,101047.31
2022-08-17T13:07:28.420Z,101046.91
2022-08-17T13:09:51.429Z,101041.34
2022-08-17T13:12:13.258Z,101043.34
2022-08-17T13:14:35.414Z,101050.59
2022-08-17T13:17:09.701Z,101054.63
2022-08-17T13:19:40.785Z,101052.22
2022-08-17T13:22:09.506Z,101059.44
2022-08-17T13:24:38.235Z,101049.41
2022-08-17T13:27:07.928Z,101059.47
2022-08-17T13:29:55.587Z,101055.50
2022-08-17T13:32:47.197Z,101053.50
2022-08-17T13:35:50.310Z,101059.13
2022-08-17T13:38:34.740Z,101067.97
2022-08-17T13:40:56.553Z,101064.72
2022-08-17T13:43:45.211Z,101058.31
2022-08-17T13:46:31.244Z,101058.34
2022-08-17T13:49:10.026Z,101049.13
2022-08-17T13:51:52.976Z,101047.84
2022-08-17T13:54:37.009Z,101049.84
2022-08-17T13:57:22.850Z,101037.38
2022-08-17T13:59:55.125Z,101034.53
2022-08-17T14:02:20.792Z,101030.06
2022-08-17T14:04:46.081Z,101036.84
2022-08-17T14:07:15.478Z,101041.56
2022-08-17T14:09:52.597Z,101049.56
2022-08-17T14:12:20.039Z,101045.97
2022-08-17T14:14:43.364Z,101049.22
2022-08-17T14:17:05.904Z,101037.19
2022-08-17T14:19:29.886Z,101039.63
2022-08-17T14:21:56.496Z,101042.44
2022-08-17T14:24:35.225Z,101040.47
2022-08-17T14:26:59.863Z,101044.50
2022-08-17T14:29:24.597Z,101037.31
2022-08-17T14:31:53.403Z,101040.94
2022-08-17T14:34:16.807Z,101034.50
2022-08-17T14:36:48.163Z,101031.69
2022-08-17T14:39:12.678Z,101036.13
2022-08-17T14:41:35.418Z,101026.13
2022-08-17T14:43:57.701Z,101028.13
2022-08-17T14:46:20.347Z,101024.94
2022-08-17T14:48:42.481Z,101024.09
2022-08-17T14:51:05.593Z,101020.50
2022-08-17T14:53:27.453Z,101016.47
2022-08-17T14:55:51.467Z,101018.06
2022-08-17T14:58:13.532Z,101017.66
2022-08-17T15:00:35.557Z,101018.84
2022-08-17T15:03:00.996Z,101021.22
2022-08-17T15:05:27.423Z,101024.41
2022-08-17T15:07:49.650Z,101020.41
2022-08-17T15:10:14.636Z,101017.97
2022-08-17T15:12:37.027Z,101025.56
2022-08-17T15:15:00.592Z,101027.97
2022-08-17T15:17:23.319Z,101024.72
2022-08-17T15:19:45.464Z,101017.13
2022-08-17T15:22:18.632Z,101013.91
2022-08-17T15:24:40.493Z,101013.97
2022-08-17T15:27:02.391Z,101015.59
2022-08-17T15:29:24.377Z,101027.63
2022-08-17T15:31:46.260Z,101020.81
2022-08-17T15:34:08.409Z,101022.81
2022-08-17T15:36:32.785Z,101026.44
2022-08-17T15:38:54.625Z,101018.00
2022-08-17T15:41:18.449Z,101026.88
2022-08-17T15:43:40.956Z,101021.69
2022-08-17T15:46:07.032Z,101022.47
2022-08-17T15:48:43.952Z,101024.88
2022-08-17T15:51:06.543Z,101024.50
2022-08-17T15:53:28.372Z,101023.66
2022-08-17T15:55:50.215Z,101024.06
2022-08-17T15:58:14.246Z,101027.66
2022-08-17T16:00:49.432Z,101030.81
2022-08-17T16:03:58.071Z,101024.72
2022-08-17T16:06:07.808Z,101013.66
2022-08-17T16:08:31.802Z,101018.31
2022-08-17T16:10:55.404Z,101012.53
2022-08-17T16:13:19.523Z,101023.34
2022-08-17T16:15:41.529Z,101018.53
2022-08-17T16:18:05.072Z,101012.91
2022-08-17T16:20:27.796Z,101024.63
2022-08-17T16:22:50.891Z,101022.25
2022-08-17T16:25:21.384Z,101014.25
2022-08-17T16:27:43.908Z,101034.75
2022-08-17T16:30:09.783Z,101039.19
2022-08-17T16:32:33.570Z,101042.78
2022-08-17T16:34:56.093Z,101038.41
2022-08-17T16:37:18.924Z,101038.41
2022-08-17T16:39:41.377Z,101045.28
2022-08-17T16:42:05.498Z,101038.06
2022-08-17T16:44:30.399Z,101036.50
2022-08-17T16:46:52.436Z,101026.09
2022-08-17T16:49:36.103Z,101030.53
2022-08-17T16:52:03.029Z,101034.22
2022-08-17T16:54:24.897Z,101036.66
2022-08-17T16:56:46.751Z,101033.88
2022-08-17T16:59:21.128Z,101033.53
2022-08-17T17:01:53.780Z,101039.59
2022-08-17T17:04:19.184Z,101042.44
2022-08-17T17:07:17.077Z,101049.28
2022-08-17T17:09:39.569Z,101045.31
2022-08-17T17:12:17.782Z,101043.31
2022-08-17T17:14:46.555Z,101042.13
2022-08-17T17:17:34.626Z,101042.53
2022-08-17T17:20:10.301Z,101038.53
2022-08-17T17:22:49.400Z,101045.81
2022-08-17T17:25:20.333Z,101038.63
2022-08-17T17:27:51.353Z,101031.41
2022-08-17T17:30:24.453Z,101044.22
2022-08-17T17:33:39.126Z,101030.56
2022-08-17T17:36:08.115Z,101036.91
2022-08-17T17:38:47.412Z,101038.06
2022-08-17T17:41:25.828Z,101048.84
2022-08-17T17:43:58.127Z,101054.81
2022-08-17T17:46:33.273Z,101047.63
2022-08-17T17:48:55.419Z,101053.28
2022-08-17T17:52:09.495Z,101066.22
2022-08-17T17:54:29.549Z,101063.88
2022-08-17T17:57:15.274Z,101063.50
2022-08-17T17:59:45.416Z,101059.16
2022-08-17T18:02:53.163Z,101069.19
2022-08-17T18:05:36.689Z,101073.19
2022-08-17T18:08:32.122Z,101076.00
2022-08-17T18:11:42.069Z,101081.66
2022-08-17T18:14:29.040Z,101091.31
2022-08-17T18:17:00.391Z,101087.69
2022-08-17T18:19:25.758Z,101093.69
2022-08-17T18:21:54.912Z,101096.13
2022-08-17T18:24:34.568Z,101093.72
2022-08-17T18:27:08.261Z,101101.72
2022-08-17T18:29:40.584Z,101093.72
2022-08-17T18:32:33.253Z,101093.31
2022-08-17T18:35:10.601Z,101090.13
2022-08-17T18:37:48.885Z,101091.75
2022-08-17T18:40:16.921Z,101089.31
2022-08-17T18:42:38.974Z,101087.31
2022-08-17T18:45:01.009Z,101084.94
2022-08-17T18:47:29.772Z,101086.53
2022-08-17T18:50:14.612Z,101084.94
2022-08-17T18:52:36.500Z,101087.34
2022-08-17T18:55:19.886Z,101074.09
2022-08-17T18:57:44.697Z,101079.72
2022-08-17T19:00:15.516Z,101089.72
2022-08-17T19:02:52.929Z,101102.13
2022-08-17T19:05:36.668Z,101111.72
2022-08-17T19:08:36.034Z,101113.75
2022-08-17T19:11:21.314Z,101122.16
2022-08-17T19:13:51.616Z,101117.72
2022-08-17T19:16:31.793Z,101108.53
2022-08-17T19:19:11.461Z,101119.31
2022-08-17T19:21:40.294Z,101120.13
2022-08-17T19:24:33.516Z,101119.31
2022-08-17T19:27:07.931Z,101123.28
2022-08-17T19:30:01.709Z,101121.69
2022-08-17T19:32:34.924Z,101122.50
2022-08-17T19:34:57.890Z,101125.69
2022-08-17T19:37:49.587Z,101130.09
2022-08-17T19:40:51.081Z,101135.69
2022-08-17T19:43:17.629Z,101139.25
2022-08-17T19:46:06.123Z,101140.44
2022-08-17T19:48:48.604Z,101143.22
2022-08-17T19:51:24.819Z,101139.63
2022-08-17T19:54:07.412Z,101136.38
2022-08-17T19:57:02.880Z,101130.00
2022-08-17T19:59:53.054Z,101142.38
2022-08-17T20:02:41.801Z,101143.97
2022-08-17T20:05:16.109Z,101147.56
2022-08-17T20:08:22.068Z,101154.78
2022-08-17T20:10:55.584Z,101152.75
2022-08-17T20:13:33.466Z,101145.53
2022-08-17T20:15:55.849Z,101147.13
2022-08-17T20:18:48.632Z,101150.34
2022-08-17T20:21:23.469Z,101145.47
2022-08-17T20:23:57.952Z,101147.06
2022-08-17T20:26:34.267Z,101155.03
2022-08-17T20:29:14.343Z,101150.28
2022-08-17T20:31:40.801Z,101151.88
2022-08-17T20:34:39.661Z,101149.44
2022-08-17T20:37:28.150Z,101151.03
2022-08-17T20:39:49.962Z,101150.63
2022-08-17T20:42:31.575Z,101147.81
2022-08-17T20:45:21.539Z,101146.22
2022-08-17T20:48:36.076Z,101144.19
2022-08-17T20:51:09.743Z,101141.34
2022-08-17T20:53:46.687Z,101145.34
2022-08-17T20:56:08.612Z,101140.50
2022-08-17T20:58:31.048Z,101138.88
2022-08-17T21:00:56.372Z,101138.41
2022-08-17T21:03:25.040Z,101134.41
2022-08-17T21:06:25.741Z,101139.22
2022-08-17T21:09:29.972Z,101139.59
2022-08-17T21:12:04.392Z,101141.97
2022-08-17T21:14:56.131Z,101143.16
2022-08-17T21:17:46.644Z,101138.78
2022-08-17T21:20:40.125Z,101138.34
2022-08-17T21:23:26.426Z,101137.91
2022-08-17T21:26:33.141Z,101139.44
2022-08-17T21:29:30.906Z,101144.66
2022-08-17T21:32:05.317Z,101139.44
2022-08-17T21:34:37.068Z,101145.38
2022-08-17T21:37:19.994Z,101148.13
2022-08-17T21:39:42.411Z,101150.91
2022-08-17T21:42:06.629Z,101156.88
2022-08-17T21:44:41.628Z,101165.28
2022-08-17T21:47:40.155Z,101158.88
2022-08-17T21:50:23.480Z,101162.41
2022-08-17T21:52:45.994Z,101168.78
2022-08-17T21:55:28.245Z,101167.19
2022-08-17T21:57:52.986Z,101167.94
2022-08-17T22:00:33.414Z,101167.13
2022-08-17T22:03:01.903Z,101167.13
2022-08-17T22:05:33.014Z,101165.91
2022-08-17T22:08:19.224Z,101156.38
2022-08-17T22:10:50.461Z,101165.56
2022-08-17T22:13:18.311Z,101169.19
2022-08-17T22:15:45.218Z,101182.78
2022-08-17T22:18:22.130Z,101178.44
2022-08-17T22:20:44.141Z,101183.59
2022-08-17T22:23:32.666Z,101180.88
2022-08-17T22:26:04.891Z,101186.88
2022-08-17T22:28:54.052Z,101173.69
2022-08-17T22:31:21.132Z,101176.88
2022-08-17T22:34:12.501Z,101177.78
2022-08-17T22:36:42.124Z,101188.09
2022-08-17T22:39:08.503Z,101177.72
2022-08-17T22:42:00.977Z,101174.56
2022-08-17T22:44:48.782Z,101175.78
2022-08-17T22:47:17.093Z,101177.00
2022-08-17T22:50:01.790Z,101173.84
2022-08-17T22:53:10.653Z,101178.25
2022-08-17T22:55:52.493Z,101174.63
2022-08-17T22:58:43.494Z,101177.44
2022-08-17T23:01:33.318Z,101176.63
2022-08-17T23:04:08.966Z,101167.41
2022-08-17T23:06:33.926Z,101167.81
2022-08-17T23:08:56.679Z,101172.25
2022-08-17T23:11:18.622Z,101175.84
2022-08-17T23:13:40.915Z,101184.22
2022-08-17T23:16:03.808Z,101184.19
2022-08-17T23:18:27.358Z,101187.38
2022-08-17T23:20:49.257Z,101183.38
2022-08-17T23:23:14.633Z,101180.22
2022-08-17T23:25:37.125Z,101181.03
2022-08-17T23:28:03.776Z,101182.63
2022-08-17T23:30:27.223Z,101178.66
2022-08-17T23:32:53.374Z,101177.50
2022-08-17T23:35:16.643Z,101171.50
2022-08-17T23:37:39.166Z,101165.16
2022-08-17T23:40:00.993Z,101172.38
2022-08-17T23:42:23.241Z,101175.56
2022-08-17T23:44:45.088Z,101187.56
2022-08-17T23:47:07.801Z,101185.56
2022-08-17T23:49:31.293Z,101180.78
2022-08-17T23:51:55.870Z,101184.38
2022-08-17T23:54:26.565Z,101180.78
2022-08-17T23:56:48.600Z,101185.16
2022-08-17T23:59:11.393Z,101179.63
